sensor_id;sensor_type;location;lat;lon;timestamp;P1;durP1;ratioP1;P2;durP2;ratioP2
43224;SDS011;28834;48.720;9.208;2022-10-16T00:01:17;3.20;;;1.87;;
43224;SDS011;28834;48.720;9.208;2022-10-16T00:03:44;1.33;;;1.13;;
43224;SDS011;28834;48.720;9.208;2022-10-16T00:06:10;2.67;;;1.50;;
43224;SDS011;28834;48.720;9.208;2022-10-16T00:08:37;5.53;;;1.53;;
43224;SDS011;28834;48.720;9.208;2022-10-16T00:11:22;1.63;;;1.47;;
43224;SDS011;28834;48.720;9.208;2022-10-16T00:13:57;1.87;;;1.40;;
43224;SDS011;28834;48.720;9.208;2022-10-16T00:16:24;1.07;;;1.00;;
43224;SDS011;28834;48.720;9.208;2022-10-16T00:18:50;1.67;;;1.57;;
43224;SDS011;28834;48.720;9.208;2022-10-16T00:21:20;1.57;;;1.20;;
43224;SDS011;28834;48.720;9.208;2022-10-16T00:23:50;2.40;;;1.37;;
43224;SDS011;28834;48.720;9.208;2022-10-16T00:26:18;1.63;;;1.03;;
43224;SDS011;28834;48.720;9.208;2022-10-16T00:28:50;3.83;;;1.20;;
43224;SDS011;28834;48.720;9.208;2022-10-16T00:31:16;3.20;;;1.40;;
43224;SDS011;28834;48.720;9.208;2022-10-16T00:33:43;1.57;;;1.43;;
43224;SDS011;28834;48.720;9.208;2022-10-16T00:36:10;1.60;;;1.40;;
43224;SDS011;28834;48.720;9.208;2022-10-16T00:38:37;2.13;;;1.23;;
43224;SDS011;28834;48.720;9.208;2022-10-16T00:41:03;1.37;;;1.27;;
43224;SDS011;28834;48.720;9.208;2022-10-16T00:43:35;2.20;;;1.67;;
43224;SDS011;28834;48.720;9.208;2022-10-16T00:46:05;2.07;;;1.70;;
43224;SDS011;28834;48.720;9.208;2022-10-16T00:48:40;2.90;;;2.17;;
43224;SDS011;28834;48.720;9.208;2022-10-16T00:51:07;2.57;;;1.90;;
43224;SDS011;28834;48.720;9.208;2022-10-16T00:53:33;2.60;;;1.93;;
43224;SDS011;28834;48.720;9.208;2022-10-16T00:55:59;2.80;;;2.07;;
43224;SDS011;28834;48.720;9.208;2022-10-16T00:58:26;3.63;;;2.60;;
43224;SDS011;28834;48.720;9.208;2022-10-16T01:00:52;6.37;;;2.40;;
43224;SDS011;28834;48.720;9.208;2022-10-16T01:03:31;3.47;;;1.93;;
43224;SDS011;28834;48.720;9.208;2022-10-16T01:06:01;2.43;;;2.03;;
43224;SDS011;28834;48.720;9.208;2022-10-16T01:08:39;3.87;;;1.60;;
43224;SDS011;28834;48.720;9.208;2022-10-16T01:11:33;2.03;;;1.30;;
43224;SDS011;28834;48.720;9.208;2022-10-16T01:17:23;1.83;;;1.73;;
43224;SDS011;28834;48.720;9.208;2022-10-16T01:22:43;2.27;;;1.60;;
43224;SDS011;28834;48.720;9.208;2022-10-16T01:28:06;1.90;;;1.70;;
43224;SDS011;28834;48.720;9.208;2022-10-16T01:30:36;2.93;;;1.63;;
43224;SDS011;28834;48.720;9.208;2022-10-16T01:33:15;2.63;;;2.00;;
43224;SDS011;28834;48.720;9.208;2022-10-16T01:35:53;2.30;;;2.00;;
43224;SDS011;28834;48.720;9.208;2022-10-16T01:40:51;2.53;;;1.97;;
43224;SDS011;28834;48.720;9.208;2022-10-16T01:43:24;3.77;;;2.27;;
43224;SDS011;28834;48.720;9.208;2022-10-16T01:45:54;5.80;;;2.00;;
43224;SDS011;28834;48.720;9.208;2022-10-16T01:48:20;4.07;;;2.10;;
43224;SDS011;28834;48.720;9.208;2022-10-16T01:50:57;2.30;;;2.10;;
43224;SDS011;28834;48.720;9.208;2022-10-16T01:53:54;2.37;;;2.07;;
43224;SDS011;28834;48.720;9.208;2022-10-16T01:56:22;2.77;;;2.47;;
43224;SDS011;28834;48.720;9.208;2022-10-16T01:59:00;2.30;;;2.10;;
43224;SDS011;28834;48.720;9.208;2022-10-16T02:01:29;3.27;;;2.20;;
43224;SDS011;28834;48.720;9.208;2022-10-16T02:03:59;3.07;;;2.10;;
43224;SDS011;28834;48.720;9.208;2022-10-16T02:06:28;2.53;;;1.80;;
43224;SDS011;28834;48.720;9.208;2022-10-16T02:08:54;2.00;;;1.70;;
43224;SDS011;28834;48.720;9.208;2022-10-16T02:11:20;7.60;;;2.13;;
43224;SDS011;28834;48.720;9.208;2022-10-16T02:13:50;3.60;;;1.90;;
43224;SDS011;28834;48.720;9.208;2022-10-16T02:16:20;3.93;;;2.30;;
43224;SDS011;28834;48.720;9.208;2022-10-16T02:18:46;2.47;;;2.27;;
43224;SDS011;28834;48.720;9.208;2022-10-16T02:27:03;3.60;;;2.17;;
43224;SDS011;28834;48.720;9.208;2022-10-16T02:29:40;4.23;;;1.87;;
43224;SDS011;28834;48.720;9.208;2022-10-16T02:32:10;2.93;;;2.07;;
43224;SDS011;28834;48.720;9.208;2022-10-16T02:34:40;3.10;;;2.20;;
43224;SDS011;28834;48.720;9.208;2022-10-16T02:37:06;4.47;;;2.20;;
43224;SDS011;28834;48.720;9.208;2022-10-16T02:39:32;2.37;;;1.70;;
43224;SDS011;28834;48.720;9.208;2022-10-16T02:41:59;1.60;;;1.50;;
43224;SDS011;28834;48.720;9.208;2022-10-16T02:44:24;1.43;;;1.17;;
43224;SDS011;28834;48.720;9.208;2022-10-16T02:46:50;1.50;;;1.40;;
43224;SDS011;28834;48.720;9.208;2022-10-16T02:49:15;3.37;;;1.63;;
43224;SDS011;28834;48.720;9.208;2022-10-16T02:51:41;1.63;;;1.37;;
43224;SDS011;28834;48.720;9.208;2022-10-16T02:54:07;1.20;;;1.10;;
43224;SDS011;28834;48.720;9.208;2022-10-16T02:56:32;1.93;;;1.20;;
43224;SDS011;28834;48.720;9.208;2022-10-16T02:58:58;1.60;;;1.30;;
43224;SDS011;28834;48.720;9.208;2022-10-16T03:01:23;1.93;;;1.43;;
43224;SDS011;28834;48.720;9.208;2022-10-16T03:03:49;2.33;;;1.50;;
43224;SDS011;28834;48.720;9.208;2022-10-16T03:06:15;1.83;;;1.50;;
43224;SDS011;28834;48.720;9.208;2022-10-16T03:08:41;2.30;;;1.60;;
43224;SDS011;28834;48.720;9.208;2022-10-16T03:11:06;7.10;;;6.50;;
43224;SDS011;28834;48.720;9.208;2022-10-16T03:13:32;3.03;;;2.80;;
43224;SDS011;28834;48.720;9.208;2022-10-16T03:15:57;2.90;;;2.00;;
43224;SDS011;28834;48.720;9.208;2022-10-16T03:18:23;1.40;;;1.30;;
43224;SDS011;28834;48.720;9.208;2022-10-16T03:20:48;2.20;;;2.00;;
43224;SDS011;28834;48.720;9.208;2022-10-16T03:23:14;3.10;;;1.20;;
43224;SDS011;28834;48.720;9.208;2022-10-16T03:25:40;3.73;;;1.37;;
43224;SDS011;28834;48.720;9.208;2022-10-16T03:28:05;1.33;;;1.23;;
43224;SDS011;28834;48.720;9.208;2022-10-16T03:30:31;1.73;;;1.10;;
43224;SDS011;28834;48.720;9.208;2022-10-16T03:32:56;2.30;;;1.60;;
43224;SDS011;28834;48.720;9.208;2022-10-16T03:35:22;1.40;;;1.30;;
43224;SDS011;28834;48.720;9.208;2022-10-16T03:37:49;3.13;;;1.10;;
43224;SDS011;28834;48.720;9.208;2022-10-16T03:40:15;1.23;;;1.10;;
43224;SDS011;28834;48.720;9.208;2022-10-16T03:42:42;1.30;;;1.17;;
43224;SDS011;28834;48.720;9.208;2022-10-16T03:45:08;1.07;;;0.97;;
43224;SDS011;28834;48.720;9.208;2022-10-16T03:47:34;0.90;;;0.90;;
43224;SDS011;28834;48.720;9.208;2022-10-16T03:50:00;3.50;;;1.10;;
43224;SDS011;28834;48.720;9.208;2022-10-16T03:52:26;2.10;;;1.03;;
43224;SDS011;28834;48.720;9.208;2022-10-16T03:54:51;1.73;;;1.27;;
43224;SDS011;28834;48.720;9.208;2022-10-16T03:57:17;1.80;;;0.93;;
43224;SDS011;28834;48.720;9.208;2022-10-16T03:59:43;0.70;;;0.70;;
43224;SDS011;28834;48.720;9.208;2022-10-16T04:02:08;2.40;;;0.90;;
43224;SDS011;28834;48.720;9.208;2022-10-16T04:04:34;3.93;;;1.27;;
43224;SDS011;28834;48.720;9.208;2022-10-16T04:07:00;1.30;;;1.10;;
43224;SDS011;28834;48.720;9.208;2022-10-16T04:09:25;1.47;;;1.37;;
43224;SDS011;28834;48.720;9.208;2022-10-16T04:11:51;2.73;;;1.80;;
43224;SDS011;28834;48.720;9.208;2022-10-16T04:14:17;5.60;;;2.20;;
43224;SDS011;28834;48.720;9.208;2022-10-16T04:16:42;2.43;;;1.67;;
43224;SDS011;28834;48.720;9.208;2022-10-16T04:19:08;1.37;;;1.20;;
43224;SDS011;28834;48.720;9.208;2022-10-16T04:21:35;1.60;;;1.20;;
43224;SDS011;28834;48.720;9.208;2022-10-16T04:24:01;1.20;;;1.10;;
43224;SDS011;28834;48.720;9.208;2022-10-16T04:26:27;2.17;;;1.10;;
43224;SDS011;28834;48.720;9.208;2022-10-16T04:28:52;3.40;;;1.20;;
43224;SDS011;28834;48.720;9.208;2022-10-16T04:31:18;4.57;;;1.60;;
43224;SDS011;28834;48.720;9.208;2022-10-16T04:33:44;2.27;;;1.27;;
43224;SDS011;28834;48.720;9.208;2022-10-16T04:36:11;1.00;;;0.83;;
43224;SDS011;28834;48.720;9.208;2022-10-16T04:38:36;1.30;;;1.20;;
43224;SDS011;28834;48.720;9.208;2022-10-16T04:41:02;1.20;;;1.07;;
43224;SDS011;28834;48.720;9.208;2022-10-16T04:43:28;1.10;;;1.00;;
43224;SDS011;28834;48.720;9.208;2022-10-16T04:45:54;1.60;;;1.17;;
43224;SDS011;28834;48.720;9.208;2022-10-16T04:48:21;1.00;;;0.90;;
43224;SDS011;28834;48.720;9.208;2022-10-16T04:50:46;1.33;;;1.23;;
43224;SDS011;28834;48.720;9.208;2022-10-16T04:53:12;1.20;;;0.87;;
43224;SDS011;28834;48.720;9.208;2022-10-16T04:55:38;1.40;;;1.30;;
43224;SDS011;28834;48.720;9.208;2022-10-16T04:58:03;3.97;;;1.23;;
43224;SDS011;28834;48.720;9.208;2022-10-16T05:00:29;2.07;;;0.80;;
43224;SDS011;28834;48.720;9.208;2022-10-16T05:02:55;2.30;;;1.10;;
43224;SDS011;28834;48.720;9.208;2022-10-16T05:05:21;1.90;;;1.07;;
43224;SDS011;28834;48.720;9.208;2022-10-16T05:07:47;0.93;;;0.90;;
43224;SDS011;28834;48.720;9.208;2022-10-16T05:10:12;1.53;;;1.40;;
43224;SDS011;28834;48.720;9.208;2022-10-16T05:12:38;1.30;;;1.10;;
43224;SDS011;28834;48.720;9.208;2022-10-16T05:15:04;2.67;;;1.33;;
43224;SDS011;28834;48.720;9.208;2022-10-16T05:17:30;1.40;;;1.20;;
43224;SDS011;28834;48.720;9.208;2022-10-16T05:19:55;1.17;;;1.07;;
43224;SDS011;28834;48.720;9.208;2022-10-16T05:22:21;1.87;;;1.40;;
43224;SDS011;28834;48.720;9.208;2022-10-16T05:24:47;4.63;;;1.13;;
43224;SDS011;28834;48.720;9.208;2022-10-16T05:27:12;1.63;;;1.13;;
43224;SDS011;28834;48.720;9.208;2022-10-16T05:29:44;1.73;;;1.00;;
43224;SDS011;28834;48.720;9.208;2022-10-16T05:32:11;1.70;;;1.20;;
43224;SDS011;28834;48.720;9.208;2022-10-16T05:34:36;2.67;;;1.27;;
43224;SDS011;28834;48.720;9.208;2022-10-16T05:37:02;4.50;;;1.50;;
43224;SDS011;28834;48.720;9.208;2022-10-16T05:39:27;2.43;;;1.10;;
43224;SDS011;28834;48.720;9.208;2022-10-16T05:41:53;1.60;;;1.43;;
43224;SDS011;28834;48.720;9.208;2022-10-16T05:44:18;1.07;;;0.90;;
43224;SDS011;28834;48.720;9.208;2022-10-16T05:46:45;1.10;;;1.00;;
43224;SDS011;28834;48.720;9.208;2022-10-16T05:49:11;1.87;;;0.97;;
43224;SDS011;28834;48.720;9.208;2022-10-16T05:51:37;3.80;;;1.20;;
43224;SDS011;28834;48.720;9.208;2022-10-16T05:54:03;1.03;;;1.00;;
43224;SDS011;28834;48.720;9.208;2022-10-16T05:56:28;1.73;;;1.20;;
43224;SDS011;28834;48.720;9.208;2022-10-16T05:58:54;2.53;;;1.20;;
43224;SDS011;28834;48.720;9.208;2022-10-16T06:01:20;1.27;;;1.17;;
43224;SDS011;28834;48.720;9.208;2022-10-16T06:03:48;2.20;;;1.17;;
43224;SDS011;28834;48.720;9.208;2022-10-16T06:06:18;3.80;;;1.77;;
43224;SDS011;28834;48.720;9.208;2022-10-16T06:08:46;3.23;;;1.30;;
43224;SDS011;28834;48.720;9.208;2022-10-16T06:11:14;2.70;;;1.10;;
43224;SDS011;28834;48.720;9.208;2022-10-16T06:13:43;2.10;;;1.20;;
43224;SDS011;28834;48.720;9.208;2022-10-16T06:16:11;2.50;;;1.37;;
43224;SDS011;28834;48.720;9.208;2022-10-16T06:18:37;1.60;;;1.30;;
43224;SDS011;28834;48.720;9.208;2022-10-16T06:21:14;3.07;;;1.70;;
43224;SDS011;28834;48.720;9.208;2022-10-16T06:23:42;2.10;;;1.57;;
43224;SDS011;28834;48.720;9.208;2022-10-16T06:26:12;1.43;;;1.33;;
43224;SDS011;28834;48.720;9.208;2022-10-16T06:28:39;2.20;;;1.40;;
43224;SDS011;28834;48.720;9.208;2022-10-16T06:31:06;1.13;;;1.03;;
43224;SDS011;28834;48.720;9.208;2022-10-16T06:33:33;4.00;;;1.27;;
43224;SDS011;28834;48.720;9.208;2022-10-16T06:38:31;3.20;;;1.13;;
43224;SDS011;28834;48.720;9.208;2022-10-16T06:40:57;1.80;;;1.13;;
43224;SDS011;28834;48.720;9.208;2022-10-16T06:43:23;1.40;;;1.30;;
43224;SDS011;28834;48.720;9.208;2022-10-16T06:45:58;1.87;;;1.20;;
43224;SDS011;28834;48.720;9.208;2022-10-16T06:48:25;1.17;;;1.03;;
43224;SDS011;28834;48.720;9.208;2022-10-16T06:50:57;1.47;;;1.23;;
43224;SDS011;28834;48.720;9.208;2022-10-16T06:53:29;1.60;;;1.00;;
43224;SDS011;28834;48.720;9.208;2022-10-16T06:55:57;1.73;;;0.90;;
43224;SDS011;28834;48.720;9.208;2022-10-16T06:58:23;2.83;;;1.10;;
43224;SDS011;28834;48.720;9.208;2022-10-16T07:00:49;1.50;;;1.20;;
43224;SDS011;28834;48.720;9.208;2022-10-16T07:03:20;2.33;;;1.07;;
43224;SDS011;28834;48.720;9.208;2022-10-16T07:05:46;1.30;;;1.10;;
43224;SDS011;28834;48.720;9.208;2022-10-16T07:08:11;2.00;;;1.00;;
43224;SDS011;28834;48.720;9.208;2022-10-16T07:10:37;3.20;;;1.37;;
43224;SDS011;28834;48.720;9.208;2022-10-16T07:13:03;2.00;;;1.37;;
43224;SDS011;28834;48.720;9.208;2022-10-16T07:15:29;3.77;;;1.93;;
43224;SDS011;28834;48.720;9.208;2022-10-16T07:17:54;3.37;;;1.87;;
43224;SDS011;28834;48.720;9.208;2022-10-16T07:20:20;3.10;;;2.00;;
43224;SDS011;28834;48.720;9.208;2022-10-16T07:22:45;3.60;;;1.60;;
43224;SDS011;28834;48.720;9.208;2022-10-16T07:25:11;1.70;;;1.40;;
43224;SDS011;28834;48.720;9.208;2022-10-16T07:27:37;1.67;;;1.57;;
43224;SDS011;28834;48.720;9.208;2022-10-16T07:30:03;1.20;;;1.13;;
43224;SDS011;28834;48.720;9.208;2022-10-16T07:32:29;1.87;;;1.30;;
43224;SDS011;28834;48.720;9.208;2022-10-16T07:34:56;2.03;;;1.60;;
43224;SDS011;28834;48.720;9.208;2022-10-16T07:37:22;1.20;;;1.10;;
43224;SDS011;28834;48.720;9.208;2022-10-16T07:39:47;2.37;;;1.20;;
43224;SDS011;28834;48.720;9.208;2022-10-16T07:42:13;1.80;;;1.43;;
43224;SDS011;28834;48.720;9.208;2022-10-16T07:44:38;1.93;;;1.20;;
43224;SDS011;28834;48.720;9.208;2022-10-16T07:47:05;1.30;;;1.20;;
43224;SDS011;28834;48.720;9.208;2022-10-16T07:49:30;1.13;;;1.03;;
43224;SDS011;28834;48.720;9.208;2022-10-16T07:51:56;2.80;;;1.47;;
43224;SDS011;28834;48.720;9.208;2022-10-16T07:54:21;2.13;;;1.13;;
43224;SDS011;28834;48.720;9.208;2022-10-16T07:56:47;1.20;;;1.00;;
43224;SDS011;28834;48.720;9.208;2022-10-16T07:59:13;1.73;;;1.10;;
43224;SDS011;28834;48.720;9.208;2022-10-16T08:01:38;5.17;;;1.77;;
43224;SDS011;28834;48.720;9.208;2022-10-16T08:04:04;1.97;;;1.40;;
43224;SDS011;28834;48.720;9.208;2022-10-16T08:06:30;2.57;;;1.30;;
43224;SDS011;28834;48.720;9.208;2022-10-16T08:09:01;1.27;;;1.17;;
43224;SDS011;28834;48.720;9.208;2022-10-16T08:11:27;2.60;;;1.53;;
43224;SDS011;28834;48.720;9.208;2022-10-16T08:13:53;1.33;;;1.20;;
43224;SDS011;28834;48.720;9.208;2022-10-16T08:16:18;2.53;;;1.50;;
43224;SDS011;28834;48.720;9.208;2022-10-16T08:18:44;4.13;;;1.50;;
43224;SDS011;28834;48.720;9.208;2022-10-16T08:21:14;3.27;;;1.37;;
43224;SDS011;28834;48.720;9.208;2022-10-16T08:23:41;2.43;;;1.40;;
43224;SDS011;28834;48.720;9.208;2022-10-16T08:26:09;2.63;;;1.33;;
43224;SDS011;28834;48.720;9.208;2022-10-16T08:28:35;2.20;;;1.33;;
43224;SDS011;28834;48.720;9.208;2022-10-16T08:31:13;2.00;;;1.10;;
43224;SDS011;28834;48.720;9.208;2022-10-16T08:33:40;1.93;;;1.20;;
43224;SDS011;28834;48.720;9.208;2022-10-16T08:36:09;2.90;;;1.30;;
43224;SDS011;28834;48.720;9.208;2022-10-16T08:38:36;2.00;;;1.10;;
43224;SDS011;28834;48.720;9.208;2022-10-16T08:47:12;1.90;;;1.47;;
43224;SDS011;28834;48.720;9.208;2022-10-16T08:49:47;1.77;;;1.23;;
43224;SDS011;28834;48.720;9.208;2022-10-16T08:52:38;2.80;;;1.40;;
43224;SDS011;28834;48.720;9.208;2022-10-16T08:55:08;3.13;;;1.20;;
43224;SDS011;28834;48.720;9.208;2022-10-16T08:57:53;2.33;;;1.13;;
43224;SDS011;28834;48.720;9.208;2022-10-16T09:00:19;2.00;;;1.10;;
43224;SDS011;28834;48.720;9.208;2022-10-16T09:02:49;1.30;;;1.20;;
43224;SDS011;28834;48.720;9.208;2022-10-16T09:05:28;1.70;;;1.10;;
43224;SDS011;28834;48.720;9.208;2022-10-16T09:08:21;1.30;;;1.10;;
43224;SDS011;28834;48.720;9.208;2022-10-16T09:11:12;2.33;;;0.80;;
43224;SDS011;28834;48.720;9.208;2022-10-16T09:13:48;1.83;;;1.07;;
43224;SDS011;28834;48.720;9.208;2022-10-16T09:16:36;4.50;;;1.17;;
43224;SDS011;28834;48.720;9.208;2022-10-16T09:19:14;2.43;;;1.00;;
43224;SDS011;28834;48.720;9.208;2022-10-16T09:21:45;2.67;;;0.90;;
43224;SDS011;28834;48.720;9.208;2022-10-16T09:24:16;2.93;;;0.70;;
43224;SDS011;28834;48.720;9.208;2022-10-16T09:26:44;3.33;;;1.07;;
43224;SDS011;28834;48.720;9.208;2022-10-16T09:29:14;5.07;;;1.00;;
43224;SDS011;28834;48.720;9.208;2022-10-16T09:31:41;3.37;;;1.10;;
43224;SDS011;28834;48.720;9.208;2022-10-16T09:34:13;1.70;;;0.93;;
43224;SDS011;28834;48.720;9.208;2022-10-16T09:36:59;1.17;;;1.00;;
43224;SDS011;28834;48.720;9.208;2022-10-16T09:39:29;2.80;;;0.70;;
43224;SDS011;28834;48.720;9.208;2022-10-16T09:41:54;1.17;;;0.87;;
43224;SDS011;28834;48.720;9.208;2022-10-16T09:44:22;2.67;;;0.90;;
43224;SDS011;28834;48.720;9.208;2022-10-16T09:47:12;2.37;;;1.03;;
43224;SDS011;28834;48.720;9.208;2022-10-16T09:50:03;3.03;;;1.17;;
43224;SDS011;28834;48.720;9.208;2022-10-16T09:52:43;3.93;;;0.97;;
43224;SDS011;28834;48.720;9.208;2022-10-16T09:55:13;1.77;;;0.93;;
43224;SDS011;28834;48.720;9.208;2022-10-16T09:57:50;4.93;;;1.40;;
43224;SDS011;28834;48.720;9.208;2022-10-16T10:00:16;1.30;;;1.00;;
43224;SDS011;28834;48.720;9.208;2022-10-16T10:02:43;2.20;;;0.70;;
43224;SDS011;28834;48.720;9.208;2022-10-16T10:05:17;1.17;;;0.70;;
43224;SDS011;28834;48.720;9.208;2022-10-16T10:07:53;1.60;;;0.83;;
43224;SDS011;28834;48.720;9.208;2022-10-16T10:10:22;1.63;;;0.80;;
43224;SDS011;28834;48.720;9.208;2022-10-16T10:12:50;1.57;;;0.73;;
43224;SDS011;28834;48.720;9.208;2022-10-16T10:15:16;0.80;;;0.53;;
43224;SDS011;28834;48.720;9.208;2022-10-16T10:22:51;1.30;;;0.70;;
43224;SDS011;28834;48.720;9.208;2022-10-16T10:30:37;1.93;;;0.80;;
43224;SDS011;28834;48.720;9.208;2022-10-16T10:33:25;0.90;;;0.60;;
43224;SDS011;28834;48.720;9.208;2022-10-16T10:36:11;3.03;;;0.67;;
43224;SDS011;28834;48.720;9.208;2022-10-16T10:47:13;3.60;;;0.80;;
43224;SDS011;28834;48.720;9.208;2022-10-16T11:01:24;1.33;;;0.70;;
43224;SDS011;28834;48.720;9.208;2022-10-16T11:06:48;2.40;;;0.90;;
43224;SDS011;28834;48.720;9.208;2022-10-16T11:11:54;2.40;;;0.80;;
43224;SDS011;28834;48.720;9.208;2022-10-16T11:14:23;2.97;;;0.90;;
43224;SDS011;28834;48.720;9.208;2022-10-16T11:19:34;1.27;;;0.70;;
43224;SDS011;28834;48.720;9.208;2022-10-16T11:22:26;1.70;;;0.73;;
43224;SDS011;28834;48.720;9.208;2022-10-16T11:30:13;0.70;;;0.50;;
43224;SDS011;28834;48.720;9.208;2022-10-16T11:35:40;1.73;;;0.60;;
43224;SDS011;28834;48.720;9.208;2022-10-16T11:38:14;2.20;;;0.80;;
43224;SDS011;28834;48.720;9.208;2022-10-16T11:40:48;2.17;;;0.80;;
43224;SDS011;28834;48.720;9.208;2022-10-16T11:45:54;2.90;;;0.90;;
43224;SDS011;28834;48.720;9.208;2022-10-16T11:48:32;1.40;;;0.60;;
43224;SDS011;28834;48.720;9.208;2022-10-16T11:51:21;1.00;;;0.90;;
43224;SDS011;28834;48.720;9.208;2022-10-16T11:56:48;4.33;;;1.07;;
43224;SDS011;28834;48.720;9.208;2022-10-16T11:59:20;2.87;;;1.07;;
43224;SDS011;28834;48.720;9.208;2022-10-16T12:01:52;0.90;;;0.60;;
43224;SDS011;28834;48.720;9.208;2022-10-16T12:04:44;1.08;;;0.60;;
43224;SDS011;28834;48.720;9.208;2022-10-16T12:07:15;1.83;;;0.80;;
43224;SDS011;28834;48.720;9.208;2022-10-16T12:09:46;1.27;;;0.77;;
43224;SDS011;28834;48.720;9.208;2022-10-16T12:12:25;1.20;;;0.80;;
43224;SDS011;28834;48.720;9.208;2022-10-16T12:15:01;0.90;;;0.67;;
43224;SDS011;28834;48.720;9.208;2022-10-16T12:17:43;1.23;;;0.80;;
43224;SDS011;28834;48.720;9.208;2022-10-16T12:22:40;2.53;;;0.57;;
43224;SDS011;28834;48.720;9.208;2022-10-16T12:25:32;0.77;;;0.57;;
43224;SDS011;28834;48.720;9.208;2022-10-16T12:30:42;1.80;;;0.67;;
43224;SDS011;28834;48.720;9.208;2022-10-16T12:35:52;1.10;;;1.00;;
43224;SDS011;28834;48.720;9.208;2022-10-16T12:38:26;2.05;;;0.60;;
43224;SDS011;28834;48.720;9.208;2022-10-16T12:41:06;0.70;;;0.60;;
43224;SDS011;28834;48.720;9.208;2022-10-16T12:43:38;1.25;;;1.00;;
43224;SDS011;28834;48.720;9.208;2022-10-16T12:48:39;2.95;;;0.57;;
43224;SDS011;28834;48.720;9.208;2022-10-16T12:51:21;1.50;;;0.70;;
43224;SDS011;28834;48.720;9.208;2022-10-16T12:56:36;1.65;;;0.70;;
43224;SDS011;28834;48.720;9.208;2022-10-16T13:13:41;1.23;;;0.90;;
43224;SDS011;28834;48.720;9.208;2022-10-16T13:16:26;3.65;;;0.85;;
43224;SDS011;28834;48.720;9.208;2022-10-16T13:30:09;2.25;;;0.90;;
43224;SDS011;28834;48.720;9.208;2022-10-16T13:32:45;1.70;;;1.10;;
43224;SDS011;28834;48.720;9.208;2022-10-16T13:35:47;5.20;;;1.23;;
43224;SDS011;28834;48.720;9.208;2022-10-16T13:38:13;1.27;;;0.87;;
43224;SDS011;28834;48.720;9.208;2022-10-16T13:43:18;0.90;;;0.90;;
43224;SDS011;28834;48.720;9.208;2022-10-16T13:46:00;1.10;;;0.90;;
43224;SDS011;28834;48.720;9.208;2022-10-16T13:48:28;1.73;;;0.90;;
43224;SDS011;28834;48.720;9.208;2022-10-16T13:51:11;2.97;;;1.30;;
43224;SDS011;28834;48.720;9.208;2022-10-16T13:53:38;4.53;;;1.00;;
43224;SDS011;28834;48.720;9.208;2022-10-16T13:56:07;4.27;;;1.30;;
43224;SDS011;28834;48.720;9.208;2022-10-16T13:58:41;4.70;;;1.27;;
43224;SDS011;28834;48.720;9.208;2022-10-16T14:01:17;4.27;;;1.40;;
43224;SDS011;28834;48.720;9.208;2022-10-16T14:03:45;2.40;;;1.07;;
43224;SDS011;28834;48.720;9.208;2022-10-16T14:06:21;6.80;;;1.10;;
43224;SDS011;28834;48.720;9.208;2022-10-16T14:08:56;3.00;;;1.20;;
43224;SDS011;28834;48.720;9.208;2022-10-16T14:11:23;2.40;;;1.50;;
43224;SDS011;28834;48.720;9.208;2022-10-16T14:13:49;2.07;;;1.40;;
43224;SDS011;28834;48.720;9.208;2022-10-16T14:16:17;2.17;;;1.03;;
43224;SDS011;28834;48.720;9.208;2022-10-16T14:18:46;1.17;;;0.97;;
43224;SDS011;28834;48.720;9.208;2022-10-16T14:21:26;1.27;;;1.03;;
43224;SDS011;28834;48.720;9.208;2022-10-16T14:23:53;1.67;;;1.07;;
43224;SDS011;28834;48.720;9.208;2022-10-16T14:26:21;1.83;;;1.20;;
43224;SDS011;28834;48.720;9.208;2022-10-16T14:28:51;2.30;;;0.90;;
43224;SDS011;28834;48.720;9.208;2022-10-16T14:31:36;2.30;;;1.03;;
43224;SDS011;28834;48.720;9.208;2022-10-16T14:34:02;1.50;;;1.00;;
43224;SDS011;28834;48.720;9.208;2022-10-16T14:36:28;1.83;;;0.93;;
43224;SDS011;28834;48.720;9.208;2022-10-16T14:41:26;3.17;;;1.23;;
43224;SDS011;28834;48.720;9.208;2022-10-16T14:43:53;2.10;;;1.13;;
43224;SDS011;28834;48.720;9.208;2022-10-16T14:46:34;1.27;;;1.00;;
43224;SDS011;28834;48.720;9.208;2022-10-16T14:49:03;1.73;;;1.30;;
43224;SDS011;28834;48.720;9.208;2022-10-16T14:51:39;1.63;;;1.53;;
43224;SDS011;28834;48.720;9.208;2022-10-16T14:54:09;1.30;;;1.20;;
43224;SDS011;28834;48.720;9.208;2022-10-16T14:56:47;1.30;;;1.20;;
43224;SDS011;28834;48.720;9.208;2022-10-16T14:59:24;2.33;;;1.20;;
43224;SDS011;28834;48.720;9.208;2022-10-16T15:01:56;4.30;;;1.30;;
43224;SDS011;28834;48.720;9.208;2022-10-16T15:04:21;3.70;;;1.90;;
43224;SDS011;28834;48.720;9.208;2022-10-16T15:06:47;3.27;;;1.90;;
43224;SDS011;28834;48.720;9.208;2022-10-16T15:09:13;3.93;;;1.90;;
43224;SDS011;28834;48.720;9.208;2022-10-16T15:11:38;1.30;;;1.20;;
43224;SDS011;28834;48.720;9.208;2022-10-16T15:14:05;1.73;;;1.63;;
43224;SDS011;28834;48.720;9.208;2022-10-16T15:16:32;2.13;;;1.10;;
43224;SDS011;28834;48.720;9.208;2022-10-16T15:18:58;2.43;;;1.20;;
43224;SDS011;28834;48.720;9.208;2022-10-16T15:21:25;1.57;;;1.23;;
43224;SDS011;28834;48.720;9.208;2022-10-16T15:23:53;1.00;;;0.90;;
43224;SDS011;28834;48.720;9.208;2022-10-16T15:26:19;1.10;;;1.00;;
43224;SDS011;28834;48.720;9.208;2022-10-16T15:28:44;1.77;;;1.30;;
43224;SDS011;28834;48.720;9.208;2022-10-16T15:31:10;1.70;;;1.20;;
43224;SDS011;28834;48.720;9.208;2022-10-16T15:33:35;1.83;;;1.00;;
43224;SDS011;28834;48.720;9.208;2022-10-16T15:36:01;1.40;;;0.83;;
43224;SDS011;28834;48.720;9.208;2022-10-16T15:38:28;1.13;;;1.03;;
43224;SDS011;28834;48.720;9.208;2022-10-16T15:40:54;1.10;;;1.00;;
43224;SDS011;28834;48.720;9.208;2022-10-16T15:43:20;1.77;;;1.20;;
43224;SDS011;28834;48.720;9.208;2022-10-16T15:46:06;1.30;;;1.20;;
43224;SDS011;28834;48.720;9.208;2022-10-16T15:48:36;1.37;;;1.20;;
43224;SDS011;28834;48.720;9.208;2022-10-16T15:51:04;2.67;;;1.30;;
43224;SDS011;28834;48.720;9.208;2022-10-16T15:53:31;1.10;;;1.00;;
43224;SDS011;28834;48.720;9.208;2022-10-16T15:55:56;5.80;;;1.67;;
43224;SDS011;28834;48.720;9.208;2022-10-16T15:58:22;3.10;;;1.30;;
43224;SDS011;28834;48.720;9.208;2022-10-16T16:00:54;2.87;;;1.50;;
43224;SDS011;28834;48.720;9.208;2022-10-16T16:03:26;1.77;;;1.07;;
43224;SDS011;28834;48.720;9.208;2022-10-16T16:05:52;2.50;;;1.47;;
43224;SDS011;28834;48.720;9.208;2022-10-16T16:08:18;2.80;;;1.43;;
43224;SDS011;28834;48.720;9.208;2022-10-16T16:10:44;1.40;;;1.10;;
43224;SDS011;28834;48.720;9.208;2022-10-16T16:13:10;2.03;;;1.77;;
43224;SDS011;28834;48.720;9.208;2022-10-16T16:15:38;1.93;;;1.50;;
43224;SDS011;28834;48.720;9.208;2022-10-16T16:18:05;2.27;;;1.63;;
43224;SDS011;28834;48.720;9.208;2022-10-16T16:20:31;3.27;;;1.50;;
43224;SDS011;28834;48.720;9.208;2022-10-16T16:22:57;4.33;;;1.57;;
43224;SDS011;28834;48.720;9.208;2022-10-16T16:25:22;2.13;;;1.60;;
43224;SDS011;28834;48.720;9.208;2022-10-16T16:27:48;2.67;;;1.57;;
43224;SDS011;28834;48.720;9.208;2022-10-16T16:30:13;3.57;;;2.17;;
43224;SDS011;28834;48.720;9.208;2022-10-16T16:32:39;2.03;;;1.50;;
43224;SDS011;28834;48.720;9.208;2022-10-16T16:35:05;1.50;;;1.40;;
43224;SDS011;28834;48.720;9.208;2022-10-16T16:37:30;2.17;;;1.63;;
43224;SDS011;28834;48.720;9.208;2022-10-16T16:39:56;1.67;;;1.57;;
43224;SDS011;28834;48.720;9.208;2022-10-16T16:42:25;1.73;;;1.30;;
43224;SDS011;28834;48.720;9.208;2022-10-16T16:44:51;1.40;;;1.30;;
43224;SDS011;28834;48.720;9.208;2022-10-16T16:47:17;3.43;;;1.67;;
43224;SDS011;28834;48.720;9.208;2022-10-16T16:49:43;2.50;;;1.70;;
43224;SDS011;28834;48.720;9.208;2022-10-16T16:52:09;1.90;;;1.63;;
43224;SDS011;28834;48.720;9.208;2022-10-16T16:54:34;1.93;;;1.53;;
43224;SDS011;28834;48.720;9.208;2022-10-16T16:57:00;3.20;;;1.40;;
43224;SDS011;28834;48.720;9.208;2022-10-16T16:59:25;1.80;;;1.70;;
43224;SDS011;28834;48.720;9.208;2022-10-16T17:01:51;4.03;;;2.00;;
43224;SDS011;28834;48.720;9.208;2022-10-16T17:04:17;3.03;;;1.83;;